Sjobris — SLXP — position and weather

sailwx.info

Track history (hours):
 
Tides and Currents Weather Stations Pressure Air Temp Water Temp Dewpoint Dewpoint Depression Visibility Wind Speed Wind Dir Waves Ship Positions

Sjobris

Last reported at 2014-Aug-30 05:33 UTC. Time now 2014-Aug-30 16:35 UTC.
Position N 59°19' E 018°05'.

Length 38 m.

Type: Passenger vessel. MMSI: 265522700.

Date/timePositionNaut miles runAvg speedWind from/ knotsBaromVisibWave heightAir tempDewpointWater temp
2014-Aug-30 05:33N 59°19' E 018°05'1 0.7
2014-Aug-30 04:33N 59°20' E 018°04'0 0.0
2014-Aug-30 03:19N 59°20' E 018°04'0 0.0
2014-Aug-30 02:28N 59°20' E 018°04'0 0.0
2014-Aug-30 00:27N 59°20' E 018°04'0 0.0
2014-Aug-29 23:32N 59°20' E 018°04'0 0.0
2014-Aug-29 22:34N 59°20' E 018°04'0 0.0
2014-Aug-29 21:33N 59°20' E 018°04'0 0.0
2014-Aug-29 20:33N 59°20' E 018°04'0 0.1
2014-Aug-29 19:33N 59°20' E 018°05'0 0.0
2014-Aug-29 15:09N 59°20' E 018°04'0 0.0
2014-Aug-29 14:33N 59°20' E 018°04'0 0.0
2014-Aug-29 10:33N 59°20' E 018°04'0 0.0
2014-Aug-29 09:23N 59°20' E 018°04'0 0.0
2014-Aug-29 08:33N 59°20' E 018°04'0 0.0
2014-Aug-29 07:13N 59°20' E 018°04'0 0.0
2014-Aug-29 06:33N 59°20' E 018°04'0 0.0
2014-Aug-29 05:33N 59°20' E 018°04'0 0.0
2014-Aug-29 04:32N 59°20' E 018°04'0 0.0
2014-Aug-28 21:34N 59°20' E 018°04'0 0.0
2014-Aug-28 20:29N 59°20' E 018°04'0 0.0
2014-Aug-28 19:23N 59°20' E 018°04'0 0.0
2014-Aug-28 18:33N 59°20' E 018°04'0 0.0
2014-Aug-28 17:32N 59°20' E 018°04'0 0.0
2014-Aug-28 16:33N 59°20' E 018°04'8 6.9
2014-Aug-28 15:26N 59°23' E 018°18'8 0.8
2014-Aug-28 06:18N 59°19' E 018°05'0 0.2
2014-Aug-28 05:20N 59°20' E 018°04'0 0.0
2014-Aug-28 04:33N 59°20' E 018°04'0 0.0
2014-Aug-28 03:33N 59°20' E 018°04'0 0.0
2014-Aug-28 02:33N 59°20' E 018°04'0 0.0
2014-Aug-28 01:33N 59°20' E 018°04'0 0.0
2014-Aug-28 00:33N 59°20' E 018°04'0 0.0
2014-Aug-27 23:33N 59°20' E 018°04'0 0.0
2014-Aug-27 22:33N 59°20' E 018°04'0 0.0
2014-Aug-27 21:33N 59°20' E 018°04'0 0.0
2014-Aug-27 20:33N 59°20' E 018°04'0 0.0
2014-Aug-27 19:33N 59°20' E 018°04'0 0.0
2014-Aug-27 18:33N 59°20' E 018°04'0 0.0
2014-Aug-27 17:30N 59°20' E 018°04'0 0.1
2014-Aug-27 16:23N 59°20' E 018°05'6 5.5
2014-Aug-27 15:22N 59°22' E 018°15'2 0.2
2014-Aug-27 06:23N 59°20' E 018°13'4 4.9
2014-Aug-27 05:30N 59°19' E 018°05'0 0.3
2014-Aug-27 04:33N 59°20' E 018°04'0 0.0
2014-Aug-27 02:30N 59°20' E 018°04'0 0.0
2014-Aug-27 01:33N 59°20' E 018°04'0 0.0
2014-Aug-27 00:33N 59°20' E 018°04'0 0.0
2014-Aug-26 22:28N 59°20' E 018°04'0 0.0
2014-Aug-26 21:27N 59°20' E 018°04'0 0.0
2014-Aug-26 20:24N 59°20' E 018°04'0 0.0
2014-Aug-26 19:33N 59°20' E 018°04'0 0.0
2014-Aug-26 18:32N 59°20' E 018°04'0 0.0
2014-Aug-26 17:33N 59°20' E 018°04'0 0.1
2014-Aug-26 16:28N 59°20' E 018°05'7 6.1
2014-Aug-26 15:19N 59°23' E 018°17'3 0.4
2014-Aug-26 06:23N 59°20' E 018°13'4 5.1
2014-Aug-26 05:32N 59°19' E 018°05'0 0.3
2014-Aug-26 04:33N 59°20' E 018°04'0 0.0
2014-Aug-26 03:34N 59°20' E 018°04'0 0.0
2014-Aug-26 02:34N 59°20' E 018°04'0 0.0
2014-Aug-26 01:33N 59°20' E 018°04'0 0.0
2014-Aug-26 00:33N 59°20' E 018°04'0 0.0
2014-Aug-25 23:34N 59°20' E 018°04'0 0.0
2014-Aug-25 22:33N 59°20' E 018°04'0 0.0
2014-Aug-25 21:34N 59°20' E 018°05'0 0.0
2014-Aug-25 20:33N 59°20' E 018°04'0 0.0
2014-Aug-25 19:31N 59°20' E 018°04'0 0.0
2014-Aug-25 18:33N 59°20' E 018°04'0 0.0
2014-Aug-25 17:32N 59°20' E 018°04'0 0.0
2014-Aug-25 15:09N 59°20' E 018°05'2 2.4
2014-Aug-25 14:14N 59°19' E 018°00'2 0.3
2014-Aug-25 06:10N 59°20' E 018°04'0 0.0
2014-Aug-25 05:29N 59°20' E 018°04'0 0.0
2014-Aug-25 04:33N 59°20' E 018°04'0 0.0
2014-Aug-25 03:33N 59°20' E 018°04'0 0.0
2014-Aug-25 02:34N 59°20' E 018°04'0 0.0
2014-Aug-25 01:33N 59°20' E 018°04'0 0.0
2014-Aug-25 00:33N 59°20' E 018°04'0 0.0
2014-Aug-24 23:33N 59°20' E 018°04'0 0.0
2014-Aug-24 22:33N 59°20' E 018°04'0 0.0
2014-Aug-24 21:34N 59°20' E 018°04'0 0.0
2014-Aug-24 20:33N 59°20' E 018°04'0 0.0
2014-Aug-24 19:33N 59°20' E 018°04'0 0.0
2014-Aug-24 18:34N 59°20' E 018°04'0 0.0
2014-Aug-24 17:34N 59°20' E 018°04'0 0.0
2014-Aug-24 15:29N 59°20' E 018°04'0 0.0
2014-Aug-24 13:17N 59°20' E 018°04'0 0.0
2014-Aug-24 09:29N 59°20' E 018°04'0 0.0
2014-Aug-24 07:32N 59°20' E 018°04'0 0.0
2014-Aug-24 06:20N 59°20' E 018°04'0 0.0
2014-Aug-24 05:31N 59°20' E 018°04'0 0.0
2014-Aug-24 04:33N 59°20' E 018°04'0 0.0
2014-Aug-24 03:33N 59°20' E 018°04'0 0.0
2014-Aug-24 02:34N 59°20' E 018°04'0 0.0
2014-Aug-24 01:33N 59°20' E 018°04'0 0.0
2014-Aug-24 00:33N 59°20' E 018°04'0 0.0
2014-Aug-23 23:34N 59°20' E 018°04'0 0.0
2014-Aug-23 22:34N 59°20' E 018°04'0 0.0
2014-Aug-23 21:33N 59°20' E 018°04'0 0.0
2014-Aug-23 20:33N 59°20' E 018°04'0 0.0
2014-Aug-23 19:33N 59°20' E 018°04'0 0.0
2014-Aug-23 03:34N 59°20' E 018°04'0 0.0
2014-Aug-23 02:33N 59°20' E 018°04'0 0.0
2014-Aug-23 01:34N 59°20' E 018°04'0 0.0
2014-Aug-23 00:33N 59°20' E 018°04'0 0.0
2014-Aug-22 23:33N 59°20' E 018°04'0 0.0
2014-Aug-22 22:34N 59°20' E 018°04'0 0.0
2014-Aug-22 21:34N 59°20' E 018°04'0 0.0
2014-Aug-22 20:34N 59°20' E 018°04'0 0.0
2014-Aug-22 19:33N 59°20' E 018°04'0 0.0
2014-Aug-22 18:33N 59°20' E 018°04'0 0.0
2014-Aug-22 17:33N 59°20' E 018°04'1 0.1
2014-Aug-22 06:03N 59°19' E 018°05'0 0.9
2014-Aug-22 05:33N 59°20' E 018°05'0 0.1
2014-Aug-22 02:13N 59°20' E 018°04'0 0.0
2014-Aug-21 21:05N 59°20' E 018°04'0 0.0
2014-Aug-21 14:05N 59°20' E 018°05'0 0.1
2014-Aug-21 12:04N 59°20' E 018°04'0 0.0
2014-Aug-21 10:29N 59°20' E 018°04'0 0.0
2014-Aug-21 09:31N 59°20' E 018°04'0 0.0
2014-Aug-21 06:28N 59°20' E 018°04'0 0.0
2014-Aug-21 05:29N 59°20' E 018°04'0 0.0
2014-Aug-21 04:34N 59°20' E 018°04'0 0.0
2014-Aug-20 23:24N 59°20' E 018°04'0 0.0
2014-Aug-20 22:15N 59°20' E 018°04'0 0.0
2014-Aug-20 21:33N 59°20' E 018°04'0 0.0
2014-Aug-20 20:34N 59°20' E 018°04'0 0.0
2014-Aug-20 19:33N 59°20' E 018°04'0 0.0
2014-Aug-20 18:33N 59°20' E 018°04'0 0.0
2014-Aug-20 17:33N 59°20' E 018°04'0 0.0
2014-Aug-20 16:33N 59°20' E 018°04'0 0.0
2014-Aug-20 15:33N 59°20' E 018°04'1 0.5
2014-Aug-20 14:28N 59°19' E 018°05'  
Track history (hours):
 
Tides and Currents Weather Stations Pressure Air Temp Water Temp Dewpoint Dewpoint Depression Visibility Wind Speed Wind Dir Waves Ship Positions

Sjobris

Last reported at 2014-Aug-30 05:33 UTC. Time now 2014-Aug-30 16:35 UTC.
Position N 59°19' E 018°05'.

Length 38 m.

Type: Passenger vessel. MMSI: 265522700.

Date/timePositionNaut miles runAvg speedWind from/ knotsBaromVisibWave heightAir tempDewpointWater temp
2014-Aug-30 05:33N 59°19' E 018°05'1 0.7
2014-Aug-30 04:33N 59°20' E 018°04'0 0.0
2014-Aug-30 03:19N 59°20' E 018°04'0 0.0
2014-Aug-30 02:28N 59°20' E 018°04'0 0.0
2014-Aug-30 00:27N 59°20' E 018°04'0 0.0
2014-Aug-29 23:32N 59°20' E 018°04'0 0.0
2014-Aug-29 22:34N 59°20' E 018°04'0 0.0
2014-Aug-29 21:33N 59°20' E 018°04'0 0.0
2014-Aug-29 20:33N 59°20' E 018°04'0 0.1
2014-Aug-29 19:33N 59°20' E 018°05'0 0.0
2014-Aug-29 15:09N 59°20' E 018°04'0 0.0
2014-Aug-29 14:33N 59°20' E 018°04'0 0.0
2014-Aug-29 10:33N 59°20' E 018°04'0 0.0
2014-Aug-29 09:23N 59°20' E 018°04'0 0.0
2014-Aug-29 08:33N 59°20' E 018°04'0 0.0
2014-Aug-29 07:13N 59°20' E 018°04'0 0.0
2014-Aug-29 06:33N 59°20' E 018°04'0 0.0
2014-Aug-29 05:33N 59°20' E 018°04'0 0.0
2014-Aug-29 04:32N 59°20' E 018°04'0 0.0
2014-Aug-28 21:34N 59°20' E 018°04'0 0.0
2014-Aug-28 20:29N 59°20' E 018°04'0 0.0
2014-Aug-28 19:23N 59°20' E 018°04'0 0.0
2014-Aug-28 18:33N 59°20' E 018°04'0 0.0
2014-Aug-28 17:32N 59°20' E 018°04'0 0.0
2014-Aug-28 16:33N 59°20' E 018°04'8 6.9
2014-Aug-28 15:26N 59°23' E 018°18'8 0.8
2014-Aug-28 06:18N 59°19' E 018°05'0 0.2
2014-Aug-28 05:20N 59°20' E 018°04'0 0.0
2014-Aug-28 04:33N 59°20' E 018°04'0 0.0
2014-Aug-28 03:33N 59°20' E 018°04'0 0.0
2014-Aug-28 02:33N 59°20' E 018°04'0 0.0
2014-Aug-28 01:33N 59°20' E 018°04'0 0.0
2014-Aug-28 00:33N 59°20' E 018°04'0 0.0
2014-Aug-27 23:33N 59°20' E 018°04'0 0.0
2014-Aug-27 22:33N 59°20' E 018°04'0 0.0
2014-Aug-27 21:33N 59°20' E 018°04'0 0.0
2014-Aug-27 20:33N 59°20' E 018°04'0 0.0
2014-Aug-27 19:33N 59°20' E 018°04'0 0.0
2014-Aug-27 18:33N 59°20' E 018°04'0 0.0
2014-Aug-27 17:30N 59°20' E 018°04'0 0.1
2014-Aug-27 16:23N 59°20' E 018°05'6 5.5
2014-Aug-27 15:22N 59°22' E 018°15'2 0.2
2014-Aug-27 06:23N 59°20' E 018°13'4 4.9
2014-Aug-27 05:30N 59°19' E 018°05'0 0.3
2014-Aug-27 04:33N 59°20' E 018°04'0 0.0
2014-Aug-27 02:30N 59°20' E 018°04'0 0.0
2014-Aug-27 01:33N 59°20' E 018°04'0 0.0
2014-Aug-27 00:33N 59°20' E 018°04'0 0.0
2014-Aug-26 22:28N 59°20' E 018°04'0 0.0
2014-Aug-26 21:27N 59°20' E 018°04'0 0.0
2014-Aug-26 20:24N 59°20' E 018°04'0 0.0
2014-Aug-26 19:33N 59°20' E 018°04'0 0.0
2014-Aug-26 18:32N 59°20' E 018°04'0 0.0
2014-Aug-26 17:33N 59°20' E 018°04'0 0.1
2014-Aug-26 16:28N 59°20' E 018°05'7 6.1
2014-Aug-26 15:19N 59°23' E 018°17'3 0.4
2014-Aug-26 06:23N 59°20' E 018°13'4 5.1
2014-Aug-26 05:32N 59°19' E 018°05'0 0.3
2014-Aug-26 04:33N 59°20' E 018°04'0 0.0
2014-Aug-26 03:34N 59°20' E 018°04'0 0.0
2014-Aug-26 02:34N 59°20' E 018°04'0 0.0
2014-Aug-26 01:33N 59°20' E 018°04'0 0.0
2014-Aug-26 00:33N 59°20' E 018°04'0 0.0
2014-Aug-25 23:34N 59°20' E 018°04'0 0.0
2014-Aug-25 22:33N 59°20' E 018°04'0 0.0
2014-Aug-25 21:34N 59°20' E 018°05'0 0.0
2014-Aug-25 20:33N 59°20' E 018°04'0 0.0
2014-Aug-25 19:31N 59°20' E 018°04'0 0.0
2014-Aug-25 18:33N 59°20' E 018°04'0 0.0
2014-Aug-25 17:32N 59°20' E 018°04'0 0.0
2014-Aug-25 15:09N 59°20' E 018°05'2 2.4
2014-Aug-25 14:14N 59°19' E 018°00'2 0.3
2014-Aug-25 06:10N 59°20' E 018°04'0 0.0
2014-Aug-25 05:29N 59°20' E 018°04'0 0.0
2014-Aug-25 04:33N 59°20' E 018°04'0 0.0
2014-Aug-25 03:33N 59°20' E 018°04'0 0.0
2014-Aug-25 02:34N 59°20' E 018°04'0 0.0
2014-Aug-25 01:33N 59°20' E 018°04'0 0.0
2014-Aug-25 00:33N 59°20' E 018°04'0 0.0
2014-Aug-24 23:33N 59°20' E 018°04'0 0.0
2014-Aug-24 22:33N 59°20' E 018°04'0 0.0
2014-Aug-24 21:34N 59°20' E 018°04'0 0.0
2014-Aug-24 20:33N 59°20' E 018°04'0 0.0
2014-Aug-24 19:33N 59°20' E 018°04'0 0.0
2014-Aug-24 18:34N 59°20' E 018°04'0 0.0
2014-Aug-24 17:34N 59°20' E 018°04'0 0.0
2014-Aug-24 15:29N 59°20' E 018°04'0 0.0
2014-Aug-24 13:17N 59°20' E 018°04'0 0.0
2014-Aug-24 09:29N 59°20' E 018°04'0 0.0
2014-Aug-24 07:32N 59°20' E 018°04'0 0.0
2014-Aug-24 06:20N 59°20' E 018°04'0 0.0
2014-Aug-24 05:31N 59°20' E 018°04'0 0.0
2014-Aug-24 04:33N 59°20' E 018°04'0 0.0
2014-Aug-24 03:33N 59°20' E 018°04'0 0.0
2014-Aug-24 02:34N 59°20' E 018°04'0 0.0
2014-Aug-24 01:33N 59°20' E 018°04'0 0.0
2014-Aug-24 00:33N 59°20' E 018°04'0 0.0
2014-Aug-23 23:34N 59°20' E 018°04'0 0.0
2014-Aug-23 22:34N 59°20' E 018°04'0 0.0
2014-Aug-23 21:33N 59°20' E 018°04'0 0.0
2014-Aug-23 20:33N 59°20' E 018°04'0 0.0
2014-Aug-23 19:33N 59°20' E 018°04'0 0.0
2014-Aug-23 03:34N 59°20' E 018°04'0 0.0
2014-Aug-23 02:33N 59°20' E 018°04'0 0.0
2014-Aug-23 01:34N 59°20' E 018°04'0 0.0
2014-Aug-23 00:33N 59°20' E 018°04'0 0.0
2014-Aug-22 23:33N 59°20' E 018°04'0 0.0
2014-Aug-22 22:34N 59°20' E 018°04'0 0.0
2014-Aug-22 21:34N 59°20' E 018°04'0 0.0
2014-Aug-22 20:34N 59°20' E 018°04'0 0.0
2014-Aug-22 19:33N 59°20' E 018°04'0 0.0
2014-Aug-22 18:33N 59°20' E 018°04'0 0.0
2014-Aug-22 17:33N 59°20' E 018°04'1 0.1
2014-Aug-22 06:03N 59°19' E 018°05'0 0.9
2014-Aug-22 05:33N 59°20' E 018°05'0 0.1
2014-Aug-22 02:13N 59°20' E 018°04'0 0.0
2014-Aug-21 21:05N 59°20' E 018°04'0 0.0
2014-Aug-21 14:05N 59°20' E 018°05'0 0.1
2014-Aug-21 12:04N 59°20' E 018°04'0 0.0
2014-Aug-21 10:29N 59°20' E 018°04'0 0.0
2014-Aug-21 09:31N 59°20' E 018°04'0 0.0
2014-Aug-21 06:28N 59°20' E 018°04'0 0.0
2014-Aug-21 05:29N 59°20' E 018°04'0 0.0
2014-Aug-21 04:34N 59°20' E 018°04'0 0.0
2014-Aug-20 23:24N 59°20' E 018°04'0 0.0
2014-Aug-20 22:15N 59°20' E 018°04'0 0.0
2014-Aug-20 21:33N 59°20' E 018°04'0 0.0
2014-Aug-20 20:34N 59°20' E 018°04'0 0.0
2014-Aug-20 19:33N 59°20' E 018°04'0 0.0
2014-Aug-20 18:33N 59°20' E 018°04'0 0.0
2014-Aug-20 17:33N 59°20' E 018°04'0 0.0
2014-Aug-20 16:33N 59°20' E 018°04'0 0.0
2014-Aug-20 15:33N 59°20' E 018°04'1 0.5
2014-Aug-20 14:28N 59°19' E 018°05'  

Dump ship's entire track history